Logan Peak - 24 Hour Table
Date & TimeSolar
Radiation
(W/m²)
Wind
Speed
(mph)
Wind
Direction
(degrees)
Air
Temperature
(°F)
Relative
Humidity
(%)
Barometeric
Pressure
(inHg)
2017/06/27 01:00 0 11.0 155 60.5 31 29.93
2017/06/27 00:00 0 12.6 129 61.0 30 29.93
2017/06/26 23:00 0 10.8 95 61.0 29 29.94
2017/06/26 22:00 0 10.1 283 60.6 34 29.96
2017/06/26 21:00 0 12.1 230 62.7 28 29.97
2017/06/26 20:00 31 9.7 168 64.2 26 29.98
2017/06/26 19:00 189 10.7 189 66.4 25 29.98
2017/06/26 18:00 423 9.0 184 68.1 23 29.98
2017/06/26 17:00 593 10.5 187 67.6 26 30.00
2017/06/26 16:00 655 10.6 193 66.0 30 30.02
2017/06/26 15:00 702 8.1 208 66.1 31 30.04
2017/06/26 14:00 679 3.6 160 66.0 21 30.05
2017/06/26 13:00 576 3.6 183 64.9 28 30.06
2017/06/26 12:00 881 5.3 181 65.0 36 30.07
2017/06/26 11:00 878 7.9 169 63.4 26 30.07
2017/06/26 10:00 699 9.8 127 61.1 31 30.07
2017/06/26 09:00 599 13.8 114 59.5 35 30.07
2017/06/26 08:00 351 14.5 106 57.8 33 30.07
2017/06/26 07:00 205 16.1 98 56.1 37 30.07
2017/06/26 06:00 70 18.0 85 55.2 39 30.07
2017/06/26 05:00 1 19.2 78 54.4 43 30.07
2017/06/26 04:00 0 15.7 80 55.2 43 30.07
2017/06/26 03:00 0 14.5 70 55.8 39 30.08
2017/06/26 02:00 0 15.1 60 56.3 41 30.08